createdAt,value
2022-09-26T00:01:43.711Z,1.00
2022-09-26T00:04:18.395Z,1.00
2022-09-26T00:06:49.079Z,1.00
2022-09-26T00:09:18.238Z,1.00
2022-09-26T00:11:47.620Z,1.00
2022-09-26T00:14:19.730Z,1.00
2022-09-26T00:16:48.515Z,1.00
2022-09-26T00:19:18.938Z,1.00
2022-09-26T00:21:47.417Z,1.00
2022-09-26T00:24:16.356Z,1.00
2022-09-26T00:26:45.405Z,1.00
2022-09-26T00:29:15.408Z,1.00
2022-09-26T00:31:46.127Z,1.00
2022-09-26T00:34:17.245Z,1.00
2022-09-26T00:36:46.003Z,1.00
2022-09-26T00:39:16.714Z,1.00
2022-09-26T00:41:46.395Z,1.00
2022-09-26T00:44:33.386Z,1.00
2022-09-26T00:47:02.888Z,1.00
2022-09-26T00:49:43.560Z,1.00
2022-09-26T00:52:19.612Z,1.00
2022-09-26T00:54:51.070Z,1.00
2022-09-26T00:57:27.410Z,1.00
2022-09-26T01:00:01.075Z,1.00
2022-09-26T01:02:30.641Z,1.00
2022-09-26T01:05:00.503Z,1.00
2022-09-26T01:07:30.793Z,1.00
2022-09-26T01:09:59.748Z,1.00
2022-09-26T01:12:28.240Z,1.00
2022-09-26T01:14:57.694Z,1.00
2022-09-26T01:17:27.356Z,1.00
2022-09-26T01:20:07.873Z,1.00
2022-09-26T01:23:03.583Z,1.00
2022-09-26T01:26:03.481Z,1.00
2022-09-26T01:28:56.670Z,1.00
2022-09-26T01:32:23.693Z,1.00
2022-09-26T01:35:00.707Z,1.00
2022-09-26T01:38:00.286Z,1.00
2022-09-26T01:41:05.555Z,1.00
2022-09-26T01:43:49.956Z,1.00
2022-09-26T01:46:56.700Z,1.00
2022-09-26T01:49:28.148Z,1.00
2022-09-26T01:52:01.141Z,1.00
2022-09-26T01:54:49.598Z,1.00
2022-09-26T01:57:38.295Z,1.00
2022-09-26T02:00:13.298Z,1.00
2022-09-26T02:02:50.260Z,1.00
2022-09-26T02:05:24.793Z,1.00
2022-09-26T02:08:12.247Z,1.00
2022-09-26T02:10:46.993Z,1.00
2022-09-26T02:13:46.246Z,1.00
2022-09-26T02:16:22.486Z,1.00
2022-09-26T02:19:06.338Z,1.00
2022-09-26T02:21:35.419Z,1.00
2022-09-26T02:24:04.032Z,1.00
2022-09-26T02:26:33.012Z,1.00
2022-09-26T02:29:03.255Z,1.00
2022-09-26T02:31:37.144Z,1.00
2022-09-26T02:34:06.241Z,1.00
2022-09-26T02:36:36.413Z,1.00
2022-09-26T02:39:05.007Z,1.00
2022-09-26T02:41:45.700Z,1.00
2022-09-26T02:44:24.562Z,1.00
2022-09-26T02:47:17.398Z,1.00
2022-09-26T02:49:48.962Z,1.00
2022-09-26T02:52:29.357Z,1.00
2022-09-26T02:55:37.143Z,1.00
2022-09-26T02:58:37.420Z,1.00
2022-09-26T03:01:33.503Z,1.00
2022-09-26T03:04:13.935Z,1.00
2022-09-26T03:06:46.387Z,1.00
2022-09-26T03:09:18.864Z,1.00
2022-09-26T03:11:48.922Z,1.00
2022-09-26T03:14:19.830Z,1.00
2022-09-26T03:16:49.557Z,1.00
2022-09-26T03:19:31.031Z,1.00
2022-09-26T03:22:00.799Z,1.00
2022-09-26T03:24:29.285Z,1.00
2022-09-26T03:26:58.203Z,1.00
2022-09-26T03:29:27.962Z,1.00
2022-09-26T03:31:56.342Z,1.00
2022-09-26T03:34:24.920Z,1.00
2022-09-26T03:36:53.259Z,1.00
2022-09-26T03:39:21.610Z,1.00
2022-09-26T03:41:50.183Z,1.00
2022-09-26T03:44:18.643Z,1.00
2022-09-26T03:46:47.961Z,1.00
2022-09-26T03:49:16.492Z,1.00
2022-09-26T03:51:45.233Z,1.00
2022-09-26T03:54:16.585Z,1.00
2022-09-26T03:56:45.826Z,1.00
2022-09-26T03:59:14.287Z,1.00
2022-09-26T04:01:42.870Z,1.00
2022-09-26T04:04:11.303Z,1.00
2022-09-26T04:06:40.056Z,1.00
2022-09-26T04:09:09.502Z,1.00
2022-09-26T04:11:40.554Z,1.00
2022-09-26T04:14:11.052Z,1.00
2022-09-26T04:16:39.483Z,1.00
2022-09-26T04:19:07.911Z,1.00
2022-09-26T04:21:36.905Z,1.00
2022-09-26T04:24:05.402Z,1.00
2022-09-26T04:26:33.875Z,1.00
2022-09-26T04:29:03.674Z,1.00
2022-09-26T04:31:32.115Z,1.00
2022-09-26T04:34:01.235Z,1.00
2022-09-26T04:36:29.727Z,1.00
2022-09-26T04:39:00.316Z,1.00
2022-09-26T04:41:30.258Z,1.00
2022-09-26T04:44:00.655Z,1.00
2022-09-26T04:46:31.193Z,1.00
2022-09-26T04:49:01.661Z,1.00
2022-09-26T04:51:32.327Z,1.00
2022-09-26T04:54:01.259Z,1.00
2022-09-26T04:56:30.863Z,1.00
2022-09-26T04:59:00.361Z,1.00
2022-09-26T05:01:29.071Z,1.00
2022-09-26T05:03:57.979Z,1.00
2022-09-26T05:06:26.686Z,1.00
2022-09-26T05:08:55.645Z,1.00
2022-09-26T05:11:24.152Z,1.00
2022-09-26T05:13:53.821Z,1.00
2022-09-26T05:16:22.898Z,1.00
2022-09-26T05:18:52.515Z,1.00
2022-09-26T05:21:21.344Z,1.00
2022-09-26T05:24:07.887Z,1.00
2022-09-26T05:26:44.022Z,1.00
2022-09-26T05:29:13.035Z,1.00
2022-09-26T05:31:41.995Z,1.00
2022-09-26T05:34:18.454Z,1.00
2022-09-26T05:36:48.290Z,1.00
2022-09-26T05:39:37.839Z,1.00
2022-09-26T05:42:10.062Z,1.00
2022-09-26T05:44:39.175Z,1.00
2022-09-26T05:47:08.434Z,1.00
2022-09-26T05:49:38.055Z,1.00
2022-09-26T05:52:07.639Z,1.00
2022-09-26T05:54:37.413Z,1.00
2022-09-26T05:57:05.783Z,1.00
2022-09-26T05:59:34.199Z,1.00
2022-09-26T06:02:02.582Z,1.00
2022-09-26T06:04:31.214Z,1.00
2022-09-26T06:06:59.812Z,1.00
2022-09-26T06:09:28.374Z,1.00
2022-09-26T06:11:56.711Z,1.00
2022-09-26T06:14:27.052Z,1.00
2022-09-26T06:16:55.514Z,1.00
2022-09-26T06:19:24.035Z,1.00
2022-09-26T06:21:52.686Z,1.00
2022-09-26T06:24:21.266Z,1.00
2022-09-26T06:26:49.727Z,1.00
2022-09-26T06:29:18.206Z,1.00
2022-09-26T06:31:47.085Z,1.00
2022-09-26T06:34:16.317Z,1.00
2022-09-26T06:36:45.035Z,1.00
2022-09-26T06:39:13.599Z,1.00
2022-09-26T06:41:42.137Z,1.00
2022-09-26T06:44:10.542Z,1.00
2022-09-26T06:46:38.981Z,1.00
2022-09-26T06:49:07.680Z,1.00
2022-09-26T06:51:38.940Z,1.00
2022-09-26T06:54:07.361Z,1.00
2022-09-26T06:56:35.752Z,1.00
2022-09-26T06:59:04.732Z,1.00
2022-09-26T07:01:34.096Z,1.00
2022-09-26T07:04:02.849Z,1.00
2022-09-26T07:06:31.560Z,1.00
2022-09-26T07:09:05.618Z,1.00
2022-09-26T07:12:09.448Z,1.00
2022-09-26T07:14:25.545Z,1.00
2022-09-26T07:16:54.342Z,1.00
2022-09-26T07:19:22.715Z,1.00
2022-09-26T07:21:51.082Z,1.00
2022-09-26T07:24:19.669Z,1.00
2022-09-26T07:26:48.052Z,1.00
2022-09-26T07:29:16.517Z,1.00
2022-09-26T07:31:45.131Z,1.00
2022-09-26T07:34:18.167Z,1.00
2022-09-26T07:36:48.238Z,1.00
2022-09-26T07:39:16.888Z,1.00
2022-09-26T07:41:49.926Z,1.00
2022-09-26T07:47:24.982Z,1.00
2022-09-26T07:50:11.827Z,1.00
2022-09-26T07:52:41.198Z,1.00
2022-09-26T07:55:11.229Z,1.00
2022-09-26T07:57:40.037Z,1.00
2022-09-26T08:00:15.447Z,1.00
2022-09-26T08:02:46.399Z,1.00
2022-09-26T08:05:25.499Z,1.00
2022-09-26T08:07:53.886Z,1.00
2022-09-26T08:10:24.862Z,1.00
2022-09-26T08:12:53.360Z,1.00
2022-09-26T08:15:21.717Z,1.00
2022-09-26T08:17:50.196Z,1.00
2022-09-26T08:20:18.785Z,1.00
2022-09-26T08:22:47.156Z,1.00
2022-09-26T08:25:15.546Z,1.00
2022-09-26T08:27:44.578Z,1.00
2022-09-26T08:30:13.143Z,1.00
2022-09-26T08:32:41.729Z,1.00
2022-09-26T08:35:15.684Z,1.00
2022-09-26T08:37:44.296Z,1.00
2022-09-26T08:40:12.931Z,1.00
2022-09-26T08:43:00.237Z,1.00
2022-09-26T08:45:52.755Z,1.00
2022-09-26T08:48:59.159Z,1.00
2022-09-26T08:51:44.547Z,1.00
2022-09-26T08:54:19.929Z,1.00
2022-09-26T08:56:59.966Z,1.00
2022-09-26T08:59:48.099Z,1.00
2022-09-26T09:02:50.755Z,1.00
2022-09-26T09:05:44.491Z,1.00
2022-09-26T09:08:31.082Z,1.00
2022-09-26T09:11:06.442Z,1.00
2022-09-26T09:13:46.833Z,1.00
2022-09-26T09:16:52.584Z,1.00
2022-09-26T09:19:35.977Z,1.00
2022-09-26T09:22:30.266Z,1.00
2022-09-26T09:25:04.630Z,1.00
2022-09-26T09:27:55.286Z,1.00
2022-09-26T09:30:27.125Z,1.00
2022-09-26T09:33:04.810Z,1.00
2022-09-26T09:35:35.889Z,1.00
2022-09-26T09:38:07.679Z,1.00
2022-09-26T09:40:42.433Z,1.00
2022-09-26T09:43:27.764Z,1.00
2022-09-26T09:46:19.577Z,1.00
2022-09-26T09:48:49.393Z,1.00
2022-09-26T09:51:35.578Z,1.00
2022-09-26T09:54:34.390Z,1.00
2022-09-26T09:57:24.324Z,1.00
2022-09-26T10:00:18.479Z,1.00
2022-09-26T10:02:53.893Z,1.00
2022-09-26T10:05:25.577Z,1.00
2022-09-26T10:07:58.818Z,1.00
2022-09-26T10:10:49.058Z,1.00
2022-09-26T10:13:18.703Z,1.00
2022-09-26T10:16:01.155Z,1.00
2022-09-26T10:18:29.925Z,1.00
2022-09-26T10:21:13.014Z,1.00
2022-09-26T10:23:47.195Z,1.00
2022-09-26T10:26:16.010Z,1.00
2022-09-26T10:28:53.364Z,1.00
2022-09-26T10:31:30.430Z,1.00
2022-09-26T10:34:05.027Z,1.00
2022-09-26T10:36:39.204Z,1.00
2022-09-26T10:39:42.071Z,1.00
2022-09-26T10:42:22.361Z,1.00
2022-09-26T10:44:51.570Z,1.00
2022-09-26T10:47:24.362Z,1.00
2022-09-26T10:50:02.177Z,1.00
2022-09-26T10:52:59.737Z,1.00
2022-09-26T10:55:40.362Z,1.00
2022-09-26T10:58:15.639Z,1.00
2022-09-26T11:00:46.505Z,1.00
2022-09-26T11:03:17.886Z,1.00
2022-09-26T11:05:58.122Z,1.00
2022-09-26T11:08:32.129Z,1.00
2022-09-26T11:11:04.883Z,1.00
2022-09-26T11:14:08.263Z,1.00
2022-09-26T11:16:45.486Z,1.00
2022-09-26T11:19:28.125Z,1.00
2022-09-26T11:22:15.193Z,1.00
2022-09-26T11:25:00.261Z,16.30
2022-09-26T11:27:46.864Z,13.80
2022-09-26T11:30:21.759Z,27.80
2022-09-26T11:32:57.026Z,35.10
2022-09-26T11:35:34.460Z,35.30
2022-09-26T11:38:19.631Z,30.80
2022-09-26T11:41:04.792Z,34.60
2022-09-26T11:43:59.561Z,31.70
2022-09-26T11:46:40.609Z,30.80
2022-09-26T11:49:42.991Z,30.10
2022-09-26T11:53:02.214Z,29.90
2022-09-26T11:55:38.001Z,41.00
2022-09-26T11:58:21.425Z,41.60
2022-09-26T12:01:18.626Z,53.30
2022-09-26T12:04:16.638Z,60.10
2022-09-26T12:07:03.139Z,70.00
2022-09-26T12:09:50.074Z,67.40
2022-09-26T12:12:39.682Z,69.60
2022-09-26T12:15:24.584Z,69.10
2022-09-26T12:18:14.870Z,70.60
2022-09-26T12:21:25.255Z,73.80
2022-09-26T12:24:08.880Z,69.60
2022-09-26T12:27:07.757Z,77.00
2022-09-26T12:30:02.907Z,87.60
2022-09-26T12:33:12.335Z,88.50
2022-09-26T12:35:49.818Z,92.20
2022-09-26T12:38:40.277Z,94.40
2022-09-26T12:41:27.208Z,93.40
2022-09-26T12:44:21.676Z,94.80
2022-09-26T12:46:56.345Z,93.90
2022-09-26T12:49:46.280Z,96.50
2022-09-26T12:52:17.899Z,94.30
2022-09-26T12:54:59.232Z,94.00
2022-09-26T12:57:58.233Z,93.20
2022-09-26T13:00:28.464Z,99.90
2022-09-26T13:03:15.480Z,99.90
2022-09-26T13:06:08.883Z,99.90
2022-09-26T13:08:59.307Z,99.90
2022-09-26T13:11:34.417Z,99.90
2022-09-26T13:14:27.984Z,99.90
2022-09-26T13:17:07.075Z,99.90
2022-09-26T13:19:52.327Z,99.90
2022-09-26T13:22:45.422Z,99.90
2022-09-26T13:25:19.702Z,99.90
2022-09-26T13:28:13.449Z,99.90
2022-09-26T13:30:47.471Z,99.90
2022-09-26T13:33:24.602Z,99.90
2022-09-26T13:35:58.138Z,99.90
2022-09-26T13:38:57.289Z,99.90
2022-09-26T13:41:49.117Z,99.90
2022-09-26T13:44:29.126Z,99.90
2022-09-26T13:47:02.662Z,99.90
2022-09-26T13:49:38.279Z,99.90
2022-09-26T13:52:43.937Z,99.90
2022-09-26T13:55:15.962Z,99.90
2022-09-26T13:57:52.179Z,99.90
2022-09-26T14:00:32.581Z,99.90
2022-09-26T14:03:18.938Z,99.90
2022-09-26T14:05:52.660Z,99.90
2022-09-26T14:08:48.401Z,99.90
2022-09-26T14:11:43.772Z,99.90
2022-09-26T14:14:22.132Z,99.90
2022-09-26T14:16:52.844Z,99.90
2022-09-26T14:19:30.274Z,99.90
2022-09-26T14:22:21.553Z,99.90
2022-09-26T14:24:51.051Z,99.90
2022-09-26T14:27:19.383Z,99.90
2022-09-26T14:30:02.879Z,99.90
2022-09-26T14:32:40.103Z,99.90
2022-09-26T14:35:31.144Z,99.90
2022-09-26T14:38:17.619Z,99.90
2022-09-26T14:40:56.927Z,99.90
2022-09-26T14:43:29.310Z,99.90
2022-09-26T14:46:15.334Z,99.90
2022-09-26T14:48:45.082Z,99.90
2022-09-26T14:51:20.176Z,99.90
2022-09-26T14:54:01.089Z,99.90
2022-09-26T14:56:33.670Z,99.90
2022-09-26T14:59:20.276Z,99.90
2022-09-26T15:01:49.098Z,99.90
2022-09-26T15:04:25.504Z,99.90
2022-09-26T15:07:05.285Z,99.90
2022-09-26T15:09:59.801Z,99.90
2022-09-26T15:12:49.073Z,99.90
2022-09-26T15:15:49.352Z,99.90
2022-09-26T15:18:41.498Z,99.90
2022-09-26T15:21:28.323Z,99.90
2022-09-26T15:23:58.595Z,99.90
2022-09-26T15:26:37.047Z,99.90
2022-09-26T15:29:08.557Z,99.40
2022-09-26T15:31:47.033Z,98.60
2022-09-26T15:34:20.356Z,96.20
2022-09-26T15:36:58.218Z,91.90
2022-09-26T15:39:32.779Z,90.40
2022-09-26T15:42:40.055Z,74.30
2022-09-26T15:45:27.913Z,63.30
2022-09-26T15:48:25.862Z,25.10
2022-09-26T15:50:57.038Z,3.10
2022-09-26T15:53:27.642Z,1.00
2022-09-26T15:56:02.893Z,1.00
2022-09-26T15:58:52.584Z,1.00
2022-09-26T16:01:23.921Z,1.00
2022-09-26T16:04:03.264Z,1.00
2022-09-26T16:06:38.184Z,1.00
2022-09-26T16:09:13.349Z,1.00
2022-09-26T16:11:57.126Z,1.00
2022-09-26T16:14:28.508Z,1.00
2022-09-26T16:17:04.854Z,1.00
2022-09-26T16:19:43.426Z,1.00
2022-09-26T16:22:40.849Z,1.00
2022-09-26T16:25:30.364Z,1.00
2022-09-26T16:28:01.829Z,1.00
2022-09-26T16:30:30.951Z,1.00
2022-09-26T16:33:25.098Z,1.00
2022-09-26T16:35:54.977Z,1.00
2022-09-26T16:38:35.802Z,1.00
2022-09-26T16:41:59.527Z,1.00
2022-09-26T16:44:33.522Z,1.00
2022-09-26T16:47:06.215Z,1.00
2022-09-26T16:49:49.248Z,1.00
2022-09-26T16:52:21.148Z,1.00
2022-09-26T16:54:50.282Z,1.00
2022-09-26T16:57:31.571Z,1.00
2022-09-26T17:00:36.824Z,1.00
2022-09-26T17:03:24.330Z,1.00
2022-09-26T17:05:54.594Z,1.00
2022-09-26T17:08:23.608Z,1.00
2022-09-26T17:10:53.349Z,1.00
2022-09-26T17:13:24.653Z,1.00
2022-09-26T17:15:56.556Z,1.00
2022-09-26T17:18:33.308Z,1.00
2022-09-26T17:21:02.349Z,1.00
2022-09-26T17:23:41.819Z,1.00
2022-09-26T17:26:22.357Z,1.00
2022-09-26T17:28:54.108Z,1.00
2022-09-26T17:31:22.683Z,1.00
2022-09-26T17:33:54.274Z,1.00
2022-09-26T17:36:28.093Z,1.00
2022-09-26T17:39:00.151Z,1.00
2022-09-26T17:41:30.554Z,1.00
2022-09-26T17:44:02.552Z,1.00
2022-09-26T17:46:31.325Z,1.00
2022-09-26T17:49:01.347Z,1.00
2022-09-26T17:51:32.401Z,1.00
2022-09-26T17:54:00.986Z,1.00
2022-09-26T17:56:29.517Z,1.00
2022-09-26T17:58:58.152Z,1.00
2022-09-26T18:01:34.404Z,1.00
2022-09-26T18:04:07.983Z,1.00
2022-09-26T18:06:37.682Z,1.00
2022-09-26T18:09:10.712Z,1.00
2022-09-26T18:11:42.416Z,1.00
2022-09-26T18:14:18.704Z,1.00
2022-09-26T18:16:47.426Z,1.00
2022-09-26T18:19:16.225Z,1.00
2022-09-26T18:21:44.742Z,1.00
2022-09-26T18:24:19.682Z,1.00
2022-09-26T18:26:51.537Z,1.00
2022-09-26T18:29:30.950Z,1.00
2022-09-26T18:32:02.158Z,1.00
2022-09-26T18:34:30.668Z,1.00
2022-09-26T18:37:00.980Z,1.00
2022-09-26T18:39:31.315Z,1.00
2022-09-26T18:42:04.369Z,1.00
2022-09-26T18:44:35.820Z,1.00
2022-09-26T18:47:08.585Z,1.00
2022-09-26T18:49:39.067Z,1.00
2022-09-26T18:52:16.265Z,1.00
2022-09-26T18:54:46.186Z,1.00
2022-09-26T18:57:32.806Z,1.00
2022-09-26T19:00:01.373Z,1.00
2022-09-26T19:02:34.707Z,1.00
2022-09-26T19:05:06.703Z,1.00
2022-09-26T19:07:35.084Z,1.00
2022-09-26T19:10:03.483Z,1.00
2022-09-26T19:12:32.363Z,1.00
2022-09-26T19:15:00.751Z,1.00
2022-09-26T19:17:29.123Z,1.00
2022-09-26T19:19:57.490Z,1.00
2022-09-26T19:22:26.961Z,1.00
2022-09-26T19:25:00.286Z,1.00
2022-09-26T19:27:34.778Z,1.00
2022-09-26T19:30:17.779Z,1.00
2022-09-26T19:32:51.995Z,1.00
2022-09-26T19:35:33.671Z,1.00
2022-09-26T19:38:03.558Z,1.00
2022-09-26T19:40:32.025Z,1.00
2022-09-26T19:43:00.562Z,1.00
2022-09-26T19:45:32.437Z,1.00
2022-09-26T19:48:01.084Z,1.00
2022-09-26T19:50:30.732Z,1.00
2022-09-26T19:52:59.547Z,1.00
2022-09-26T19:55:30.205Z,1.00
2022-09-26T19:58:03.582Z,1.00
2022-09-26T20:00:37.786Z,1.00
2022-09-26T20:03:06.256Z,1.00
2022-09-26T20:05:34.676Z,1.00
2022-09-26T20:08:03.268Z,1.00
2022-09-26T20:10:31.625Z,1.00
2022-09-26T20:13:00.023Z,1.00
2022-09-26T20:15:28.488Z,1.00
2022-09-26T20:17:59.195Z,1.00
2022-09-26T20:20:28.563Z,1.00
2022-09-26T20:22:57.476Z,1.00
2022-09-26T20:25:32.223Z,1.00
2022-09-26T20:28:01.326Z,1.00
2022-09-26T20:30:47.866Z,1.00
2022-09-26T20:33:16.392Z,1.00
2022-09-26T20:35:48.519Z,1.00
2022-09-26T20:38:36.980Z,1.00
2022-09-26T20:41:28.570Z,1.00
2022-09-26T20:44:02.851Z,1.00
2022-09-26T20:46:39.062Z,1.00
2022-09-26T20:49:17.018Z,1.00
2022-09-26T20:51:46.287Z,1.00
2022-09-26T20:54:32.337Z,1.00
2022-09-26T20:57:02.121Z,1.00
2022-09-26T20:59:30.607Z,1.00
2022-09-26T21:02:00.345Z,1.00
2022-09-26T21:04:33.569Z,1.00
2022-09-26T21:07:02.081Z,1.00
2022-09-26T21:09:30.498Z,1.00
2022-09-26T21:11:58.834Z,1.00
2022-09-26T21:14:27.406Z,1.00
2022-09-26T21:16:56.042Z,1.00
2022-09-26T21:19:25.738Z,1.00
2022-09-26T21:21:54.176Z,1.00
2022-09-26T21:24:38.995Z,1.00
2022-09-26T21:27:12.364Z,1.00
2022-09-26T21:29:44.433Z,1.00
2022-09-26T21:32:23.466Z,1.00
2022-09-26T21:35:04.848Z,1.00
2022-09-26T21:37:33.371Z,1.00
2022-09-26T21:40:02.378Z,1.00
2022-09-26T21:42:30.837Z,1.00
2022-09-26T21:45:04.124Z,1.00
2022-09-26T21:47:32.928Z,1.00
2022-09-26T21:50:01.343Z,1.00
2022-09-26T21:52:47.313Z,1.00
2022-09-26T21:55:21.402Z,1.00
2022-09-26T21:57:51.455Z,1.00
2022-09-26T22:00:20.185Z,1.00
2022-09-26T22:02:48.887Z,1.00
2022-09-26T22:05:18.399Z,1.00
2022-09-26T22:07:46.774Z,1.00
2022-09-26T22:10:16.445Z,1.00
2022-09-26T22:12:44.851Z,1.00
2022-09-26T22:15:13.207Z,1.00
2022-09-26T22:17:41.556Z,1.00
2022-09-26T22:20:10.684Z,1.00
2022-09-26T22:22:39.173Z,1.00
2022-09-26T22:25:08.922Z,1.00
2022-09-26T22:27:37.525Z,1.00
2022-09-26T22:30:07.289Z,1.00
2022-09-26T22:32:35.706Z,1.00
2022-09-26T22:35:04.262Z,1.00
2022-09-26T22:37:32.630Z,1.00
2022-09-26T22:40:00.965Z,1.00
2022-09-26T22:42:29.429Z,1.00
2022-09-26T22:44:57.815Z,1.00
2022-09-26T22:47:26.203Z,1.00
2022-09-26T22:49:55.175Z,1.00
2022-09-26T22:52:23.522Z,1.00
2022-09-26T22:54:51.898Z,1.00
2022-09-26T22:57:20.364Z,1.00
2022-09-26T22:59:48.729Z,1.00
2022-09-26T23:02:17.134Z,1.00
2022-09-26T23:04:48.349Z,1.00
2022-09-26T23:07:19.507Z,1.00
2022-09-26T23:09:47.978Z,1.00
2022-09-26T23:12:16.482Z,1.00
2022-09-26T23:14:44.998Z,1.00
2022-09-26T23:17:13.566Z,1.00
2022-09-26T23:19:42.274Z,1.00
2022-09-26T23:22:10.650Z,1.00
2022-09-26T23:24:39.038Z,1.00
2022-09-26T23:27:07.417Z,1.00
2022-09-26T23:29:35.801Z,1.00
2022-09-26T23:32:04.190Z,1.00
2022-09-26T23:34:32.587Z,1.00
2022-09-26T23:37:00.922Z,1.00
2022-09-26T23:39:29.272Z,1.00
2022-09-26T23:41:58.314Z,1.00
2022-09-26T23:44:26.745Z,1.00
2022-09-26T23:46:55.111Z,1.00
2022-09-26T23:49:23.491Z,1.00
2022-09-26T23:51:51.996Z,1.00
2022-09-26T23:54:20.330Z,1.00
2022-09-26T23:56:48.740Z,1.00
2022-09-26T23:59:17.085Z,1.00
